Time;durP1;ratioP1;P1;durP2;ratioP2;P2;SDS_P1;SDS_P2;PMS_P1;PMS_P2;Temp;Humidity;BMP_temperature;BMP_pressure;BME280_temperature;BME280_humidity;BME280_pressure;Samples;Min_cycle;Max_cycle;Signal;HPM_P1;HPM_P2
2023/12/07 05:06:32;;;;;;;51.90;24.38;;;-0.10;99.90;;;;;;7618348;19;20371;-73
2023/12/07 05:09:08;;;;;;;51.78;23.40;;;;;;;;;;7628416;19;20475;-73
2023/12/07 05:11:41;;;;;;;47.80;21.05;;;;;;;;;;7631440;19;20022;-73
2023/12/07 05:14:14;;;;;;;47.75;21.75;;;;;;;;;;7627469;19;20011;-71
2023/12/07 05:16:48;;;;;;;44.13;20.40;;;;;;;;;;7605653;19;20038;-71
2023/12/07 05:19:21;;;;;;;45.92;20.98;;;;;;;;;;7605767;19;20924;-71
2023/12/07 05:21:54;;;;;;;46.15;20.67;;;;;;;;;;7638813;19;20050;-71
2023/12/07 05:24:28;;;;;;;44.03;19.92;;;;;;;;;;7633317;19;20030;-73
2023/12/07 05:27:01;;;;;;;41.80;20.20;;;;;;;;;;7620515;19;20014;-72
2023/12/07 05:29:34;;;;;;;48.97;21.63;;;;;;;;;;7624713;19;20028;-71
2023/12/07 05:32:06;;;;;;;44.63;21.40;;;;;;;;;;7629160;19;20487;-72
2023/12/07 05:34:40;;;;;;;40.83;19.88;;;;;;;;;;7629622;19;20056;-73
2023/12/07 05:37:13;;;;;;;;;;;;;;;;;;7624256;19;20892;-70
2023/12/07 05:39:46;;;;;;;40.88;20.15;;;;;;;;;;7631167;19;19922;-73
2023/12/07 05:42:19;;;;;;;39.60;20.13;;;;;;;;;;7621528;19;20022;-71
2023/12/07 05:44:52;;;;;;;41.45;21.60;;;;;;;;;;7631941;19;20018;-74
2023/12/07 05:47:25;;;;;;;;;;;;;;;;;;7622074;19;20093;-72
2023/12/07 05:49:59;;;;;;;48.03;22.05;;;;;;;;;;7628221;19;19931;-74
2023/12/07 05:52:32;;;;;;;37.38;18.83;;;;;;;;;;7630262;19;20363;-72
2023/12/07 05:55:05;;;;;;;41.42;19.92;;;;;;;;;;7641963;19;20028;-74
2023/12/07 05:57:38;;;;;;;38.50;19.88;;;;;;;;;;7623062;19;20105;-74
2023/12/07 06:00:11;;;;;;;34.07;18.80;;;;;;;;;;7623692;19;20077;-74
2023/12/07 06:02:43;;;;;;;38.65;19.95;;;;;;;;;;7632023;19;20018;-74
2023/12/07 06:05:16;;;;;;;37.47;19.27;;;;;;;;;;7615987;19;20597;-74
2023/12/07 06:07:49;;;;;;;35.67;17.20;;;;;;;;;;7628323;19;20098;-74
2023/12/07 06:10:22;;;;;;;42.65;18.88;;;;;;;;;;7616768;19;20294;-73
2023/12/07 06:12:56;;;;;;;;;;;;;;;;;;7637337;19;21236;-72
2023/12/07 06:15:29;;;;;;;35.08;17.38;;;;;;;;;;7628977;19;20507;-71
2023/12/07 06:18:03;;;;;;;38.47;18.15;;;;;;;;;;7586118;19;20059;-72
2023/12/07 06:20:36;;;;;;;38.88;19.33;;;;;;;;;;7603262;19;20070;-72
2023/12/07 06:23:12;;;;;;;38.90;18.92;;;;;;;;;;7602493;19;20949;-71
2023/12/07 06:25:45;;;;;;;36.97;18.90;;;;;;;;;;7594388;19;20014;-72
2023/12/07 06:28:18;;;;;;;41.47;19.45;;;;;;;;;;7598309;19;20042;-72
2023/12/07 06:30:51;;;;;;;41.50;20.27;;;;;;;;;;7601507;19;20436;-72
2023/12/07 15:42:48;;;;;;;18.50;9.40;;;0.40;99.90;;;;;;7597536;19;20381;-75
2023/12/07 15:45:21;;;;;;;;;;;0.20;99.90;;;;;;7612767;19;20417;-73
2023/12/07 15:47:54;;;;;;;16.08;9.52;;;;;;;;;;7619584;19;20748;-74
2023/12/07 15:50:27;;;;;;;16.25;9.60;;;;;;;;;;7609167;19;20119;-73
2023/12/07 15:53:00;;;;;;;21.33;12.00;;;;;;;;;;7584408;19;20022;-74
2023/12/07 15:55:33;;;;;;;22.90;11.80;;;;;;;;;;7612894;19;20111;-75
2023/12/07 15:58:06;;;;;;;19.42;10.85;;;;;;;;;;7629872;19;20010;-74
2023/12/07 16:00:39;;;;;;;26.52;12.02;;;;;;;;;;7599850;19;20853;-74
2023/12/07 16:03:12;;;;;;;20.48;12.65;;;;;;;;;;7632391;19;20018;-74
2023/12/07 16:05:44;;;;;;;30.13;16.67;;;;;;;;;;7592578;19;20102;-75
2023/12/07 16:08:17;;;;;;;22.77;12.50;;;;;;;;;;7631089;19;20867;-76
2023/12/07 16:10:50;;;;;;;22.58;11.25;;;;;;;;;;7615253;19;20279;-75
2023/12/07 16:13:23;;;;;;;21.00;11.73;;;;;;;;;;7633436;19;20944;-74
2023/12/07 16:15:55;;;;;;;19.80;10.50;;;;;;;;;;7616910;19;20328;-75
2023/12/07 16:18:28;;;;;;;16.95;10.05;;;;;;;;;;7625822;19;20022;-75
2023/12/07 16:21:01;;;;;;;23.33;12.25;;;;;;;;;;7623820;19;20014;-74
2023/12/07 16:23:35;;;;;;;24.35;14.05;;;;;;;;;;7595990;19;20044;-73
2023/12/07 16:26:09;;;;;;;22.98;12.73;;;;;;;;;;7630804;19;20052;-74
2023/12/07 16:28:41;;;;;;;20.08;10.98;;;;;;;;;;7618240;19;20018;-74
2023/12/07 16:31:15;;;;;;;19.43;12.77;;;;;;;;;;7629117;19;20073;-74
2023/12/07 16:33:47;;;;;;;;;;;;;;;;;;7587868;19;20022;-75
2023/12/07 16:36:20;;;;;;;27.70;10.55;;;;;;;;;;7602217;19;21423;-75
2023/12/07 16:38:55;;;;;;;22.73;13.10;;;;;;;;;;7606311;19;20010;-73
2023/12/07 16:41:30;;;;;;;21.10;11.35;;;;;;;;;;7617475;19;20485;-73
2023/12/07 16:44:12;;;;;;;23.38;10.80;;;;;;;;;;7592856;19;20530;-75
2023/12/07 16:46:45;;;;;;;19.95;10.93;;;;;;;;;;7606660;19;20816;-74
2023/12/07 16:49:19;;;;;;;;;;;;;;;;;;7607761;19;20018;-73
2023/12/07 16:51:51;;;;;;;24.13;11.55;;;0.10;99.90;;;;;;7618522;19;20627;-76
2023/12/07 16:54:24;;;;;;;29.52;13.80;;;0.00;99.90;;;;;;7593836;19;20093;-74
2023/12/07 16:56:56;;;;;;;24.37;13.27;;;-0.10;99.90;;;;;;7564399;19;20019;-75
2023/12/07 16:59:29;;;;;;;25.20;13.70;;;-0.10;99.90;;;;;;7571001;19;20358;-73
2023/12/07 17:02:03;;;;;;;25.52;13.63;;;0.00;99.90;;;;;;7555974;19;20110;-72
2023/12/07 17:04:35;;;;;;;28.80;13.65;;;0.00;99.90;;;;;;7553155;19;20017;-75
2023/12/07 17:07:08;;;;;;;32.15;15.48;;;-0.10;99.90;;;;;;7555356;19;20015;-72
2023/12/07 17:09:40;;;;;;;30.55;14.52;;;-0.10;99.90;;;;;;7547171;19;20015;-74
2023/12/07 17:12:14;;;;;;;32.78;15.55;;;-0.20;99.90;;;;;;7561439;19;20011;-74
2023/12/07 17:14:46;;;;;;;34.45;17.50;;;-0.20;99.90;;;;;;7560469;19;20038;-74
2023/12/07 17:17:20;;;;;;;35.95;18.80;;;-0.20;99.90;;;;;;7591276;19;20921;-73
2023/12/07 17:19:53;;;;;;;51.83;25.15;;;-0.30;99.90;;;;;;7565653;19;20013;-75
2023/12/07 17:22:51;;;;;;;43.00;22.33;;;-0.40;99.90;;;;;;7605819;19;20029;-73
2023/12/07 17:25:24;;;;;;;37.47;18.42;;;-0.40;99.90;;;;;;7609916;19;20323;-74
2023/12/07 17:27:56;;;;;;;30.30;16.33;;;-0.50;99.90;;;;;;7578358;19;20010;-73
2023/12/07 17:30:30;;;;;;;31.17;17.20;;;-0.50;99.90;;;;;;7578713;19;20029;-74
2023/12/07 17:33:03;;;;;;;33.97;15.77;;;-0.50;99.90;;;;;;7592059;19;20289;-74
2023/12/07 17:35:36;;;;;;;32.97;16.17;;;-0.40;99.90;;;;;;7593212;19;20047;-73
2023/12/07 17:38:09;;;;;;;31.52;16.25;;;-0.40;99.90;;;;;;7588214;19;20014;-74
2023/12/07 17:40:42;;;;;;;31.77;14.88;;;-0.50;99.90;;;;;;7570405;19;20014;-72
2023/12/07 17:43:14;;;;;;;26.73;14.73;;;-0.50;99.90;;;;;;7576413;19;20006;-73
2023/12/07 17:45:47;;;;;;;25.42;14.00;;;-0.50;99.90;;;;;;7572667;19;20018;-72
2023/12/07 17:48:19;;;;;;;25.73;13.48;;;-0.50;99.90;;;;;;7575578;19;20021;-74
2023/12/07 17:50:51;;;;;;;32.92;16.08;;;-0.50;99.90;;;;;;7578343;19;20021;-75
2023/12/07 17:53:24;;;;;;;28.85;15.05;;;-0.60;99.90;;;;;;7600136;19;20770;-73
2023/12/07 17:55:56;;;;;;;31.02;15.68;;;-0.60;99.90;;;;;;7576385;19;20347;-72
2023/12/07 17:58:28;;;;;;;31.20;16.90;;;-0.70;99.90;;;;;;7588452;19;20015;-72
2023/12/07 18:01:01;;;;;;;32.08;17.33;;;-0.70;99.90;;;;;;7575930;19;21519;-75
2023/12/07 18:03:36;;;;;;;33.20;14.80;;;-0.70;99.90;;;;;;7589607;19;20027;-74
2023/12/07 18:06:10;;;;;;;31.35;15.43;;;-0.70;99.90;;;;;;7655699;19;20007;-75
2023/12/07 18:08:43;;;;;;;30.50;14.30;;;-0.70;99.90;;;;;;7646949;19;20364;-73
2023/12/07 18:11:23;;;;;;;34.47;16.08;;;-0.70;99.90;;;;;;7585647;19;20011;-73
2023/12/07 18:13:56;;;;;;;53.53;26.55;;;-0.80;99.90;;;;;;7593541;19;20014;-74
2023/12/07 18:16:28;;;;;;;130.52;61.72;;;-0.80;99.90;;;;;;7590950;19;20890;-74
2023/12/07 18:19:00;;;;;;;57.38;29.55;;;-0.90;99.90;;;;;;7563646;19;20804;-73
2023/12/07 18:21:33;;;;;;;38.63;19.00;;;-0.90;99.90;;;;;;7586443;19;20014;-74
2023/12/07 18:24:07;;;;;;;58.43;28.63;;;-0.90;99.90;;;;;;7574587;19;20019;-74
2023/12/07 18:26:39;;;;;;;73.50;40.38;;;-0.90;99.90;;;;;;7607474;19;20267;-73
2023/12/07 18:29:11;;;;;;;48.70;25.38;;;-0.90;99.90;;;;;;7594783;19;20018;-73
2023/12/07 18:31:46;;;;;;;62.15;36.53;;;-1.00;99.90;;;;;;7577922;19;20018;-74
2023/12/07 18:34:20;;;;;;;45.05;21.20;;;-1.00;99.90;;;;;;7597477;19;20017;-74
2023/12/07 18:36:52;;;;;;;50.30;27.10;;;-1.00;99.90;;;;;;7585266;19;20013;-75
2023/12/07 18:39:25;;;;;;;56.47;29.90;;;-1.00;99.90;;;;;;7547017;19;21481;-75
2023/12/07 18:41:58;;;;;;;51.38;29.67;;;-1.00;99.90;;;;;;7567591;19;20042;-74
2023/12/07 18:44:30;;;;;;;47.53;23.83;;;-1.00;99.90;;;;;;7573737;19;20026;-75
2023/12/07 18:49:28;;;;;;;39.05;19.92;;;-1.00;99.90;;;;;;7623328;19;20800;-74
2023/12/07 18:52:03;;;;;;;38.03;19.60;;;-1.10;99.90;;;;;;7593292;19;20010;-73
2023/12/07 18:54:39;;;;;;;39.42;20.17;;;-1.10;99.90;;;;;;7623311;19;20102;-74
2023/12/07 19:27:11;;;;;;;45.72;20.23;;;-1.90;99.90;;;;;;7629433;19;21039;-75
2023/12/07 19:29:43;;;;;;;50.78;22.30;;;-2.00;99.90;;;;;;7635118;19;20010;-73
2023/12/07 19:32:16;;;;;;;49.10;20.92;;;-1.90;99.90;;;;;;7615612;19;20027;-73
2023/12/07 19:34:48;;;;;;;49.72;21.45;;;-1.90;99.90;;;;;;7634684;19;20018;-73
2023/12/07 19:37:21;;;;;;;46.53;22.10;;;-1.90;99.90;;;;;;7652837;19;20018;-73
2023/12/07 19:39:53;;;;;;;49.40;21.73;;;-1.80;99.90;;;;;;7663874;19;20104;-75
2023/12/07 19:42:26;;;;;;;44.28;21.27;;;-1.70;99.90;;;;;;7662504;19;20035;-74
2023/12/07 19:44:59;;;;;;;47.28;22.48;;;-1.70;99.90;;;;;;7633568;19;20022;-75
2023/12/07 19:47:32;;;;;;;44.45;21.25;;;-1.70;99.90;;;;;;7630657;19;20019;-74
2023/12/07 19:50:05;;;;;;;48.03;21.80;;;-1.60;99.90;;;;;;7618060;19;20096;-73
2023/12/07 19:52:38;;;;;;;48.45;22.83;;;-1.60;99.90;;;;;;7664094;19;20638;-74
2023/12/07 19:55:20;;;;;;;49.53;23.63;;;-1.60;99.90;;;;;;7653246;19;20379;-74
2023/12/07 19:57:54;;;;;;;47.40;22.30;;;-1.60;99.90;;;;;;7663507;19;20021;-74
2023/12/07 20:00:26;;;;;;;49.10;22.38;;;-1.60;99.90;;;;;;7636394;19;21053;-74
2023/12/07 20:02:58;;;;;;;55.55;26.00;;;-1.60;99.90;;;;;;7630963;19;20014;-73
2023/12/07 20:05:31;;;;;;;41.67;20.17;;;-1.60;99.90;;;;;;7624754;19;20025;-73
2023/12/07 20:08:03;;;;;;;48.65;24.27;;;-1.70;99.90;;;;;;7639999;19;20014;-74
2023/12/07 20:10:37;;;;;;;49.20;24.15;;;-1.70;99.90;;;;;;7636878;19;20011;-74
2023/12/07 20:13:10;;;;;;;53.22;25.42;;;-1.70;99.90;;;;;;7607920;19;20018;-74
2023/12/07 20:15:43;;;;;;;50.33;22.92;;;-1.70;99.90;;;;;;7640607;19;20018;-73
2023/12/07 20:18:15;;;;;;;52.93;25.60;;;-1.80;99.90;;;;;;7617678;19;20034;-75
2023/12/07 20:20:48;;;;;;;45.60;23.13;;;-1.80;99.90;;;;;;7631350;19;20285;-75
2023/12/07 20:23:21;;;;;;;45.60;21.52;;;-1.90;99.90;;;;;;7635630;19;21031;-74
2023/12/07 20:25:53;;;;;;;43.88;22.30;;;-1.90;99.90;;;;;;7630558;19;20025;-75
2023/12/07 20:28:26;;;;;;;43.03;20.45;;;-1.90;99.90;;;;;;7627461;19;20014;-75
2023/12/07 20:30:59;;;;;;;46.08;21.58;;;-1.90;99.90;;;;;;7640109;19;21323;-73
2023/12/07 20:33:31;;;;;;;46.33;20.70;;;-2.00;99.90;;;;;;7639993;19;20013;-72
2023/12/07 20:36:05;;;;;;;41.53;20.40;;;-2.10;99.90;;;;;;7632355;19;20544;-73
2023/12/07 20:38:37;;;;;;;;;;;-2.10;99.90;;;;;;7601548;19;20058;-72
2023/12/07 20:41:09;;;;;;;46.17;19.00;;;-2.10;99.90;;;;;;7560737;19;19937;-74
2023/12/07 20:43:41;;;;;;;42.88;19.80;;;-2.20;99.90;;;;;;7538344;19;20018;-72
2023/12/07 20:46:14;;;;;;;48.90;23.33;;;-2.20;99.90;;;;;;7548368;19;20052;-73
2023/12/07 20:48:47;;;;;;;49.00;23.53;;;-2.20;99.90;;;;;;7580578;19;20014;-74
2023/12/07 20:51:20;;;;;;;47.83;22.30;;;-2.30;99.90;;;;;;7539139;19;20025;-73
2023/12/07 20:53:53;;;;;;;48.28;22.83;;;-2.40;99.90;;;;;;7589324;19;20032;-73
2023/12/07 20:56:25;;;;;;;46.15;22.08;;;-2.40;99.90;;;;;;7565474;19;20022;-73
2023/12/07 20:59:09;;;;;;;50.63;23.80;;;-2.40;99.90;;;;;;7538644;19;20837;-72
2023/12/07 21:01:42;;;;;;;47.65;23.55;;;-2.50;99.90;;;;;;7583665;19;20125;-71
2023/12/07 21:04:14;;;;;;;49.75;22.95;;;-2.50;99.90;;;;;;7559539;19;20026;-73
2023/12/07 21:06:47;;;;;;;47.38;22.55;;;-2.60;99.90;;;;;;7579369;19;20105;-71
2023/12/07 21:09:19;;;;;;;47.92;22.35;;;-2.70;99.90;;;;;;7580494;19;20098;-73
2023/12/07 21:11:51;;;;;;;49.95;23.77;;;-2.60;99.90;;;;;;7556853;19;20052;-74
2023/12/07 21:14:24;;;;;;;43.78;21.40;;;-2.50;99.90;;;;;;7570553;19;20018;-73
2023/12/07 21:16:57;;;;;;;45.88;22.23;;;-2.50;99.90;;;;;;7574197;19;20745;-72
2023/12/07 21:19:31;;;;;;;43.75;21.77;;;-2.50;99.90;;;;;;7561392;19;20101;-72
2023/12/07 21:22:04;;;;;;;47.95;22.92;;;-2.50;99.90;;;;;;7589473;19;20017;-72
2023/12/07 21:24:36;;;;;;;47.25;22.77;;;-2.50;99.90;;;;;;7558769;19;20106;-72
2023/12/07 21:27:09;;;;;;;48.75;23.77;;;-2.50;99.90;;;;;;7556307;19;20015;-73
2023/12/07 21:29:41;;;;;;;56.15;26.27;;;-2.60;99.90;;;;;;7572762;19;21101;-72
2023/12/07 21:32:13;;;;;;;51.95;25.23;;;-2.60;99.90;;;;;;7578759;19;20452;-73
2023/12/07 21:34:46;;;;;;;49.10;24.67;;;-2.60;99.90;;;;;;7582081;19;20032;-74
2023/12/07 21:37:18;;;;;;;50.30;24.17;;;-2.70;99.90;;;;;;7580306;19;20026;-73
2023/12/07 21:39:50;;;;;;;45.22;23.58;;;-2.80;99.90;;;;;;7561405;19;20011;-72
2023/12/07 21:42:22;;;;;;;48.60;22.80;;;-2.80;99.90;;;;;;7558152;19;20048;-73
2023/12/07 21:44:55;;;;;;;47.03;21.02;;;-2.80;99.90;;;;;;7570094;19;20010;-71
2023/12/07 21:47:28;;;;;;;46.90;22.75;;;-2.80;99.90;;;;;;7555085;19;20014;-71
2023/12/07 21:50:03;;;;;;;47.28;22.58;;;-2.90;99.90;;;;;;7563898;19;20011;-73
2023/12/07 21:52:36;;;;;;;44.90;22.52;;;-3.00;99.90;;;;;;7558739;19;20014;-74
2023/12/07 21:55:11;;;;;;;44.45;22.23;;;-3.00;99.90;;;;;;7558122;19;20051;-71
2023/12/07 21:57:44;;;;;;;48.05;22.98;;;-3.00;99.90;;;;;;7582242;19;21075;-72
2023/12/07 22:00:17;;;;;;;47.78;21.10;;;-3.00;99.90;;;;;;7580746;19;21029;-72
2023/12/07 22:02:49;;;;;;;50.42;23.27;;;-3.00;99.90;;;;;;7580391;19;20010;-72
2023/12/07 22:05:22;;;;;;;48.80;23.67;;;-3.00;99.90;;;;;;7568807;19;20078;-70
2023/12/07 22:07:55;;;;;;;51.08;22.83;;;-3.00;99.90;;;;;;7542812;19;20026;-71
2023/12/07 22:10:27;;;;;;;48.60;23.00;;;-3.00;99.90;;;;;;7566183;19;20665;-74
2023/12/07 22:13:00;;;;;;;48.72;23.33;;;-3.10;99.90;;;;;;7558847;19;20018;-71
2023/12/07 22:15:33;;;;;;;43.42;21.58;;;-3.10;99.90;;;;;;7572866;19;20489;-71
2023/12/07 22:18:05;;;;;;;45.88;21.50;;;-3.20;99.90;;;;;;7562093;19;20021;-73
2023/12/07 22:20:38;;;;;;;41.77;20.63;;;-3.30;99.90;;;;;;7573303;19;20018;-74
2023/12/07 22:23:10;;;;;;;42.75;20.17;;;-3.30;99.90;;;;;;7575385;19;20047;-73
2023/12/07 22:25:42;;;;;;;37.50;18.77;;;-3.30;99.90;;;;;;7576095;19;20643;-72
2023/12/07 22:28:15;;;;;;;31.98;17.02;;;-3.40;99.90;;;;;;7603249;19;20040;-71
2023/12/07 22:30:47;;;;;;;32.20;17.05;;;-3.40;99.90;;;;;;7603331;19;20092;-72
2023/12/07 22:33:19;;;;;;;30.52;17.17;;;-3.40;99.90;;;;;;7592700;19;20018;-71
2023/12/07 22:35:52;;;;;;;33.53;17.45;;;-3.40;99.90;;;;;;7591094;19;20018;-71
2023/12/07 22:38:24;;;;;;;34.28;16.05;;;-3.40;99.90;;;;;;7599879;19;20014;-70
2023/12/07 22:40:56;;;;;;;30.40;15.32;;;-3.40;99.90;;;;;;7597134;19;21078;-71
2023/12/07 22:43:29;;;;;;;31.17;16.63;;;-3.40;99.90;;;;;;7604395;19;20094;-71
2023/12/07 22:46:01;;;;;;;30.90;16.38;;;-3.50;99.90;;;;;;7589620;19;20014;-70
2023/12/07 22:48:33;;;;;;;32.00;16.10;;;-3.50;99.90;;;;;;7584610;19;20015;-70
2023/12/07 22:51:05;;;;;;;35.70;17.53;;;-3.60;99.90;;;;;;7593723;19;20019;-70
2023/12/07 22:53:38;;;;;;;36.22;17.85;;;-3.60;99.90;;;;;;7584555;19;20019;-71
2023/12/07 22:56:10;;;;;;;36.92;18.58;;;-3.70;99.90;;;;;;7588709;19;20010;-70
2023/12/07 22:58:44;;;;;;;41.50;20.03;;;-3.70;99.90;;;;;;7588830;19;20098;-72
2023/12/07 23:01:16;;;;;;;42.38;20.80;;;-3.70;99.90;;;;;;7590786;19;20267;-72
2023/12/07 23:03:48;;;;;;;39.60;21.30;;;-3.70;99.90;;;;;;7568851;19;20114;-71
2023/12/07 23:06:21;;;;;;;39.73;18.37;;;-3.70;99.90;;;;;;7580921;19;20033;-73
2023/12/07 23:08:54;;;;;;;36.22;17.20;;;-3.80;99.90;;;;;;7576795;19;20275;-71
2023/12/07 23:11:26;;;;;;;36.28;17.60;;;-3.90;99.90;;;;;;7569283;19;20018;-71
2023/12/07 23:13:58;;;;;;;33.03;17.10;;;-3.80;99.90;;;;;;7573437;19;20527;-72
2023/12/07 23:16:31;;;;;;;35.50;17.63;;;-3.80;99.90;;;;;;7597270;19;20018;-71
2023/12/07 23:19:03;;;;;;;36.83;17.40;;;-3.80;99.90;;;;;;7597081;19;20018;-72
2023/12/07 23:21:36;;;;;;;38.70;16.98;;;-3.80;99.90;;;;;;7599683;19;20021;-70
2023/12/07 23:24:09;;;;;;;34.05;16.38;;;-3.80;99.90;;;;;;7597983;19;20022;-70
2023/12/07 23:26:42;;;;;;;30.10;14.85;;;-3.90;99.90;;;;;;7603540;19;20048;-72
2023/12/07 23:29:15;;;;;;;31.08;15.57;;;-3.80;99.90;;;;;;7598290;19;23246;-70
2023/12/07 23:31:47;;;;;;;28.65;15.00;;;-3.80;99.90;;;;;;7593939;19;20019;-70
2023/12/07 23:34:20;;;;;;;30.52;14.40;;;-3.80;99.90;;;;;;7595022;19;20039;-70
2023/12/07 23:36:52;;;;;;;26.52;13.73;;;-3.80;99.90;;;;;;7597471;19;20022;-69
2023/12/07 23:39:24;;;;;;;27.38;14.23;;;-3.80;99.90;;;;;;7593654;19;20033;-70
2023/12/07 23:41:56;;;;;;;31.75;15.65;;;-3.80;99.90;;;;;;7605526;19;20110;-70
2023/12/07 23:44:29;;;;;;;27.63;15.10;;;-3.90;99.90;;;;;;7592950;19;20022;-70
2023/12/07 23:47:02;;;;;;;27.98;14.70;;;-3.90;99.90;;;;;;7604201;19;20014;-72
2023/12/07 23:49:34;;;;;;;25.08;13.70;;;-4.00;99.90;;;;;;7584053;19;20627;-70
2023/12/07 23:52:07;;;;;;;24.70;13.80;;;-4.00;99.90;;;;;;7585426;19;20014;-69
2023/12/07 23:54:39;;;;;;;29.30;13.77;;;-3.90;99.90;;;;;;7586578;19;20050;-73
2023/12/07 23:57:12;;;;;;;28.75;13.82;;;-3.90;99.90;;;;;;7578683;19;20309;-70
2023/12/07 23:59:44;;;;;;;29.40;14.13;;;-3.90;99.90;;;;;;7596723;19;20455;-70
